createdAt,value
2023-12-31T00:00:51.780Z,6.70
2023-12-31T00:03:20.149Z,6.70
2023-12-31T00:05:48.614Z,6.60
2023-12-31T00:08:16.977Z,6.60
2023-12-31T00:10:45.512Z,6.70
2023-12-31T00:13:13.865Z,6.70
2023-12-31T00:15:42.302Z,6.70
2023-12-31T00:18:12.035Z,6.70
2023-12-31T00:20:40.960Z,6.60
2023-12-31T00:23:12.944Z,6.70
2023-12-31T00:25:41.561Z,6.70
2023-12-31T00:28:09.960Z,6.70
2023-12-31T00:30:38.346Z,6.70
2023-12-31T00:33:07.299Z,6.70
2023-12-31T00:35:37.320Z,6.70
2023-12-31T00:38:05.963Z,6.70
2023-12-31T00:40:34.413Z,6.80
2023-12-31T00:43:03.069Z,6.80
2023-12-31T00:45:31.577Z,6.80
2023-12-31T00:48:00.012Z,6.80
2023-12-31T00:50:28.440Z,6.80
2023-12-31T00:52:58.064Z,6.80
2023-12-31T00:55:26.496Z,6.80
2023-12-31T00:57:54.896Z,6.80
2023-12-31T01:00:23.446Z,6.80
2023-12-31T01:02:51.785Z,6.80
2023-12-31T01:05:20.182Z,6.70
2023-12-31T01:07:48.797Z,6.70
2023-12-31T01:10:18.773Z,6.70
2023-12-31T01:12:47.149Z,6.60
2023-12-31T01:15:15.860Z,6.60
2023-12-31T01:17:44.369Z,6.50
2023-12-31T01:20:13.949Z,6.40
2023-12-31T01:22:42.309Z,6.40
2023-12-31T01:25:11.748Z,6.30
2023-12-31T01:27:41.648Z,6.20
2023-12-31T01:30:11.993Z,6.20
2023-12-31T01:32:40.460Z,6.10
2023-12-31T01:35:10.028Z,6.00
2023-12-31T01:37:38.385Z,5.90
2023-12-31T01:40:08.205Z,5.80
2023-12-31T01:42:36.510Z,5.80
2023-12-31T01:45:07.270Z,5.70
2023-12-31T01:47:35.700Z,5.60
2023-12-31T01:50:05.165Z,5.60
2023-12-31T01:52:35.125Z,5.50
2023-12-31T01:55:05.742Z,5.50
2023-12-31T01:57:34.642Z,5.40
2023-12-31T02:00:05.139Z,5.40
2023-12-31T02:02:34.890Z,5.30
2023-12-31T02:05:03.420Z,5.30
2023-12-31T02:07:31.991Z,5.20
2023-12-31T02:10:00.437Z,5.10
2023-12-31T02:12:28.774Z,5.10
2023-12-31T02:14:57.132Z,5.00
2023-12-31T02:17:25.538Z,5.00
2023-12-31T02:19:55.318Z,5.00
2023-12-31T02:22:23.768Z,4.90
2023-12-31T02:24:52.230Z,4.90
2023-12-31T02:27:22.034Z,4.80
2023-12-31T02:29:50.507Z,4.80
2023-12-31T02:32:18.993Z,4.80
2023-12-31T02:34:47.509Z,4.70
2023-12-31T02:37:15.954Z,4.70
2023-12-31T02:39:44.392Z,4.70
2023-12-31T02:42:12.742Z,4.70
2023-12-31T02:44:42.444Z,4.60
2023-12-31T02:47:12.398Z,4.60
2023-12-31T02:49:40.833Z,4.60
2023-12-31T02:52:11.185Z,4.50
2023-12-31T02:54:39.582Z,4.50
2023-12-31T02:57:08.314Z,4.50
2023-12-31T02:59:36.690Z,4.40
2023-12-31T03:02:06.724Z,4.40
2023-12-31T03:04:35.283Z,4.40
2023-12-31T03:07:03.826Z,4.40
2023-12-31T03:09:32.142Z,4.40
2023-12-31T03:12:00.493Z,4.30
2023-12-31T03:14:28.811Z,4.30
2023-12-31T03:16:59.000Z,4.20
2023-12-31T03:19:29.512Z,4.20
2023-12-31T03:21:57.892Z,4.10
2023-12-31T03:24:26.302Z,4.10
2023-12-31T03:26:54.667Z,4.10
2023-12-31T03:29:23.027Z,4.00
2023-12-31T03:31:51.599Z,4.00
2023-12-31T03:34:21.240Z,4.00
2023-12-31T03:36:50.956Z,4.00
2023-12-31T03:39:19.251Z,3.90
2023-12-31T03:41:47.656Z,3.90
2023-12-31T03:44:16.051Z,3.90
2023-12-31T03:46:45.254Z,3.80
2023-12-31T03:49:13.799Z,3.80
2023-12-31T03:51:42.144Z,3.80
2023-12-31T03:54:11.915Z,3.70
2023-12-31T03:56:40.927Z,3.70
2023-12-31T03:59:09.571Z,3.70
2023-12-31T04:01:46.531Z,3.60
2023-12-31T04:04:16.599Z,3.60
2023-12-31T04:06:45.157Z,3.60
2023-12-31T04:09:14.922Z,3.60
2023-12-31T04:11:43.227Z,3.60
2023-12-31T04:14:11.556Z,3.60
2023-12-31T04:16:39.944Z,3.60
2023-12-31T04:19:08.366Z,3.70
2023-12-31T04:21:36.742Z,3.70
2023-12-31T04:24:05.884Z,3.70
2023-12-31T04:26:35.801Z,3.80
2023-12-31T04:29:04.237Z,3.80
2023-12-31T04:31:32.784Z,3.80
2023-12-31T04:34:01.265Z,3.90
2023-12-31T04:36:29.709Z,3.90
2023-12-31T04:38:58.112Z,3.90
2023-12-31T04:41:26.513Z,3.90
2023-12-31T04:43:56.241Z,3.90
2023-12-31T04:46:24.657Z,3.90
2023-12-31T04:48:53.039Z,4.00
2023-12-31T04:51:31.692Z,4.00
2023-12-31T04:54:00.150Z,4.00
2023-12-31T04:56:28.688Z,4.00
2023-12-31T04:58:59.905Z,4.00
2023-12-31T05:01:33.041Z,4.10
2023-12-31T05:04:01.627Z,4.10
2023-12-31T05:06:30.013Z,4.10
2023-12-31T05:08:59.167Z,4.10
2023-12-31T05:11:27.801Z,4.20
2023-12-31T05:13:58.051Z,4.20
2023-12-31T05:16:27.974Z,4.20
2023-12-31T05:18:56.563Z,4.30
2023-12-31T05:21:24.993Z,4.30
2023-12-31T05:23:53.294Z,4.40
2023-12-31T05:26:21.689Z,4.40
2023-12-31T05:28:50.170Z,4.50
2023-12-31T05:31:19.947Z,4.60
2023-12-31T05:33:49.011Z,4.60
2023-12-31T05:36:17.439Z,4.70
2023-12-31T05:38:45.803Z,4.70
2023-12-31T05:41:14.186Z,4.80
2023-12-31T05:43:42.512Z,4.80
2023-12-31T05:46:10.884Z,4.80
2023-12-31T05:48:42.004Z,4.80
2023-12-31T05:51:10.344Z,4.90
2023-12-31T05:53:38.788Z,4.90
2023-12-31T05:56:07.762Z,4.90
2023-12-31T05:58:36.105Z,4.90
2023-12-31T06:01:04.804Z,4.90
2023-12-31T06:03:33.363Z,4.90
2023-12-31T06:06:03.526Z,4.90
2023-12-31T06:08:31.873Z,4.90
2023-12-31T06:11:00.456Z,4.90
2023-12-31T06:13:28.861Z,4.90
2023-12-31T06:15:57.454Z,5.00
2023-12-31T06:18:25.918Z,5.00
2023-12-31T06:20:54.302Z,5.10
2023-12-31T06:23:23.062Z,5.10
2023-12-31T06:25:51.489Z,5.20
2023-12-31T06:28:20.001Z,5.20
2023-12-31T06:30:48.428Z,5.20
2023-12-31T06:33:16.897Z,5.20
2023-12-31T06:35:45.276Z,5.20
2023-12-31T06:38:13.698Z,5.30
2023-12-31T06:40:43.585Z,5.30
2023-12-31T06:43:12.363Z,5.40
2023-12-31T06:45:41.599Z,5.40
2023-12-31T06:48:10.141Z,5.40
2023-12-31T06:50:38.480Z,5.40
2023-12-31T06:53:07.348Z,5.50
2023-12-31T06:55:36.012Z,5.50
2023-12-31T06:58:06.044Z,5.60
2023-12-31T07:00:34.952Z,5.60
2023-12-31T07:03:03.985Z,5.60
2023-12-31T07:05:32.519Z,5.60
2023-12-31T07:08:01.031Z,5.60
2023-12-31T07:10:29.394Z,5.60
2023-12-31T07:12:57.800Z,5.60
2023-12-31T07:15:27.480Z,5.60
2023-12-31T07:17:55.919Z,5.60
2023-12-31T07:20:24.316Z,5.70
2023-12-31T07:22:54.231Z,5.70
2023-12-31T07:25:22.752Z,5.70
2023-12-31T07:27:51.138Z,5.70
2023-12-31T07:30:19.815Z,5.70
2023-12-31T07:32:49.740Z,5.70
2023-12-31T07:35:18.920Z,5.70
2023-12-31T07:37:47.359Z,5.70
2023-12-31T07:40:15.910Z,5.70
2023-12-31T07:42:44.251Z,5.70
2023-12-31T07:45:12.893Z,5.80
2023-12-31T07:47:41.250Z,5.80
2023-12-31T07:50:12.136Z,5.80
2023-12-31T07:52:40.548Z,5.80
2023-12-31T07:55:10.641Z,5.80
2023-12-31T07:57:39.439Z,5.80
2023-12-31T08:00:09.154Z,5.90
2023-12-31T08:02:37.480Z,5.90
2023-12-31T08:05:07.116Z,5.90
2023-12-31T08:07:37.316Z,5.90
2023-12-31T08:10:06.780Z,5.90
2023-12-31T08:12:35.198Z,5.90
2023-12-31T08:15:03.618Z,6.00
2023-12-31T08:17:32.088Z,6.00
2023-12-31T08:20:00.603Z,6.10
2023-12-31T08:22:39.544Z,6.10
2023-12-31T08:25:09.171Z,6.20
2023-12-31T08:27:37.661Z,6.20
2023-12-31T08:30:07.581Z,6.30
2023-12-31T08:32:35.954Z,6.30
2023-12-31T08:35:04.679Z,6.30
2023-12-31T08:37:33.207Z,6.40
2023-12-31T08:40:03.088Z,6.40
2023-12-31T08:42:31.707Z,6.50
2023-12-31T08:45:06.182Z,6.50
2023-12-31T08:47:35.733Z,6.60
2023-12-31T08:50:09.400Z,6.60
2023-12-31T08:52:41.551Z,6.60
2023-12-31T08:55:11.490Z,6.60
2023-12-31T08:57:42.686Z,6.70
2023-12-31T09:00:12.665Z,6.80
2023-12-31T09:02:41.071Z,6.80
2023-12-31T09:05:10.936Z,6.90
2023-12-31T09:07:39.418Z,7.00
2023-12-31T09:10:10.870Z,7.00
2023-12-31T09:12:39.424Z,7.10
2023-12-31T09:15:10.004Z,7.10
2023-12-31T09:17:38.575Z,7.10
2023-12-31T09:20:10.219Z,7.20
2023-12-31T09:22:39.212Z,7.20
2023-12-31T09:25:09.330Z,7.30
2023-12-31T09:27:39.638Z,7.30
2023-12-31T09:30:10.128Z,7.30
2023-12-31T09:32:38.651Z,7.40
2023-12-31T09:35:07.952Z,7.40
2023-12-31T09:37:36.358Z,7.40
2023-12-31T09:40:05.332Z,7.50
2023-12-31T09:42:43.841Z,7.50
2023-12-31T09:45:12.376Z,7.50
2023-12-31T09:47:40.902Z,7.60
2023-12-31T09:50:10.902Z,7.60
2023-12-31T09:52:39.355Z,7.60
2023-12-31T09:55:09.155Z,7.60
2023-12-31T09:57:37.546Z,7.60
2023-12-31T10:00:09.478Z,7.60
2023-12-31T10:02:37.950Z,7.60
2023-12-31T10:05:08.007Z,7.70
2023-12-31T10:07:37.453Z,7.70
2023-12-31T10:10:06.983Z,7.80
2023-12-31T10:12:35.627Z,7.80
2023-12-31T10:15:04.109Z,7.80
2023-12-31T10:17:35.720Z,7.80
2023-12-31T10:20:04.801Z,7.80
2023-12-31T10:22:33.968Z,7.80
2023-12-31T10:25:13.918Z,7.80
2023-12-31T10:27:42.758Z,7.80
2023-12-31T10:30:13.293Z,7.80
2023-12-31T10:32:43.877Z,7.90
2023-12-31T10:35:12.432Z,7.80
2023-12-31T10:37:41.415Z,7.90
2023-12-31T10:40:20.998Z,7.90
2023-12-31T10:42:52.128Z,8.00
2023-12-31T10:45:21.204Z,8.00
2023-12-31T10:47:54.526Z,8.10
2023-12-31T10:50:24.921Z,8.10
2023-12-31T10:52:55.294Z,8.10
2023-12-31T10:55:24.700Z,8.10
2023-12-31T10:57:53.600Z,8.20
2023-12-31T11:00:22.204Z,8.20
2023-12-31T11:02:52.302Z,8.20
2023-12-31T11:05:20.780Z,8.20
2023-12-31T11:07:49.321Z,8.20
2023-12-31T11:10:18.364Z,8.20
2023-12-31T11:12:49.948Z,8.30
2023-12-31T11:15:20.679Z,8.30
2023-12-31T11:18:17.649Z,8.30
2023-12-31T11:21:15.014Z,8.40
2023-12-31T11:23:48.396Z,8.40
2023-12-31T11:26:17.153Z,8.40
2023-12-31T11:28:52.197Z,8.40
2023-12-31T11:31:20.898Z,8.50
2023-12-31T11:33:51.962Z,8.50
2023-12-31T11:36:20.400Z,8.50
2023-12-31T11:38:59.273Z,8.50
2023-12-31T11:41:28.802Z,8.50
2023-12-31T11:43:57.575Z,8.50
2023-12-31T11:46:39.798Z,8.50
2023-12-31T11:49:10.525Z,8.50
2023-12-31T11:52:05.217Z,8.60
2023-12-31T11:54:40.454Z,8.60
2023-12-31T11:57:10.159Z,8.60
2023-12-31T11:59:38.753Z,8.60
2023-12-31T12:02:08.312Z,8.60
2023-12-31T12:04:38.271Z,8.60
2023-12-31T12:07:07.430Z,8.60
2023-12-31T12:09:35.823Z,8.60
2023-12-31T12:12:06.296Z,8.60
2023-12-31T12:14:34.872Z,8.60
2023-12-31T12:17:03.963Z,8.60
2023-12-31T12:19:36.114Z,8.60
2023-12-31T12:22:06.473Z,8.50
2023-12-31T12:24:34.862Z,8.60
2023-12-31T12:27:06.914Z,8.60
2023-12-31T12:29:37.370Z,8.60
2023-12-31T12:32:08.259Z,8.60
2023-12-31T12:34:37.369Z,8.60
2023-12-31T12:37:07.294Z,8.60
2023-12-31T12:39:35.589Z,8.60
2023-12-31T12:42:04.202Z,8.60
2023-12-31T12:44:32.558Z,8.60
2023-12-31T12:47:01.013Z,8.60
2023-12-31T12:49:29.385Z,8.60
2023-12-31T12:51:57.739Z,8.70
2023-12-31T12:54:28.184Z,8.60
2023-12-31T12:56:57.415Z,8.60
2023-12-31T12:59:25.726Z,8.60
2023-12-31T13:01:54.139Z,8.60
2023-12-31T13:04:22.572Z,8.60
2023-12-31T13:06:55.517Z,8.60
2023-12-31T13:09:23.947Z,8.60
2023-12-31T13:11:53.624Z,8.50
2023-12-31T13:14:21.920Z,8.50
2023-12-31T13:16:51.000Z,8.50
2023-12-31T13:19:20.929Z,8.50
2023-12-31T13:21:49.470Z,8.50
2023-12-31T13:24:17.989Z,8.50
2023-12-31T13:26:48.077Z,8.50
2023-12-31T13:29:17.881Z,8.50
2023-12-31T13:31:46.386Z,8.60
2023-12-31T13:34:14.864Z,8.60
2023-12-31T13:36:43.289Z,8.60
2023-12-31T13:39:11.575Z,8.50
2023-12-31T13:41:39.065Z,8.60
2023-12-31T13:44:07.501Z,8.60
2023-12-31T13:46:37.186Z,8.60
2023-12-31T13:49:06.216Z,8.50
2023-12-31T13:51:34.711Z,8.50
2023-12-31T13:54:03.182Z,8.50
2023-12-31T13:56:31.546Z,8.50
2023-12-31T13:59:00.081Z,8.50
2023-12-31T14:01:28.480Z,8.50
2023-12-31T14:03:58.276Z,8.40
2023-12-31T14:06:26.678Z,8.40
2023-12-31T14:08:57.060Z,8.40
2023-12-31T14:11:27.218Z,8.40
2023-12-31T14:13:55.943Z,8.40
2023-12-31T14:16:24.281Z,8.40
2023-12-31T14:18:53.237Z,8.30
2023-12-31T14:21:23.220Z,8.30
2023-12-31T14:23:51.663Z,8.30
2023-12-31T14:26:20.045Z,8.30
2023-12-31T14:28:48.370Z,8.30
2023-12-31T14:31:16.838Z,8.30
2023-12-31T14:33:49.851Z,8.30
2023-12-31T14:36:22.071Z,8.30
2023-12-31T14:38:50.423Z,8.30
2023-12-31T14:41:18.786Z,8.30
2023-12-31T14:43:47.649Z,8.30
2023-12-31T14:46:16.109Z,8.20
2023-12-31T14:48:44.644Z,8.20
2023-12-31T14:51:13.245Z,8.20
2023-12-31T14:53:42.896Z,8.10
2023-12-31T14:56:11.258Z,8.10
2023-12-31T14:58:39.670Z,8.10
2023-12-31T15:01:08.113Z,8.00
2023-12-31T15:03:36.492Z,8.00
2023-12-31T15:06:05.394Z,8.00
2023-12-31T15:08:33.833Z,8.00
2023-12-31T15:11:04.567Z,8.00
2023-12-31T15:13:34.894Z,8.00
2023-12-31T15:16:04.289Z,8.00
2023-12-31T15:18:32.724Z,8.00
2023-12-31T15:21:01.226Z,8.00
2023-12-31T15:23:29.638Z,8.00
2023-12-31T15:25:58.046Z,8.00
2023-12-31T15:28:27.847Z,8.00
2023-12-31T15:30:56.314Z,8.00
2023-12-31T15:33:24.963Z,8.00
2023-12-31T15:35:53.384Z,8.10
2023-12-31T15:38:21.831Z,8.10
2023-12-31T15:40:50.212Z,8.10
2023-12-31T15:43:18.530Z,8.10
2023-12-31T15:45:48.263Z,8.10
2023-12-31T15:48:16.630Z,8.00
2023-12-31T15:50:45.097Z,8.00
2023-12-31T15:53:13.394Z,7.90
2023-12-31T15:55:41.786Z,7.90
2023-12-31T15:58:10.239Z,7.90
2023-12-31T16:00:38.672Z,7.80
2023-12-31T16:03:08.719Z,7.80
2023-12-31T16:05:37.147Z,7.80
2023-12-31T16:08:06.939Z,7.70
2023-12-31T16:10:35.504Z,7.70
2023-12-31T16:13:03.865Z,7.70
2023-12-31T16:15:32.223Z,7.70
2023-12-31T16:18:00.661Z,7.70
2023-12-31T16:20:31.711Z,7.70
2023-12-31T16:23:00.181Z,7.70
2023-12-31T16:25:28.807Z,7.70
2023-12-31T16:27:57.338Z,7.70
2023-12-31T16:30:25.805Z,7.70
2023-12-31T16:32:54.285Z,7.70
2023-12-31T16:35:22.664Z,7.70
2023-12-31T16:37:52.323Z,7.70
2023-12-31T16:40:20.709Z,7.70
2023-12-31T16:42:49.032Z,7.80
2023-12-31T16:45:17.585Z,7.80
2023-12-31T16:47:45.923Z,7.70
2023-12-31T16:50:14.384Z,7.70
2023-12-31T16:52:42.760Z,7.70
2023-12-31T16:55:12.623Z,7.70
2023-12-31T16:57:42.539Z,7.80
2023-12-31T17:00:13.149Z,7.80
2023-12-31T17:02:41.574Z,7.80
2023-12-31T17:05:10.407Z,7.80
2023-12-31T17:07:38.872Z,7.80
2023-12-31T17:10:12.943Z,7.80
2023-12-31T17:12:43.022Z,7.80
2023-12-31T17:15:14.538Z,7.80
2023-12-31T17:17:43.133Z,7.80
2023-12-31T17:20:12.768Z,7.80
2023-12-31T17:22:41.689Z,7.80
2023-12-31T17:25:10.980Z,7.80
2023-12-31T17:27:39.416Z,7.80
2023-12-31T17:30:11.288Z,7.80
2023-12-31T17:32:40.618Z,7.80
2023-12-31T17:35:10.375Z,7.80
2023-12-31T17:37:38.774Z,7.80
2023-12-31T17:40:09.263Z,7.80
2023-12-31T17:42:37.609Z,7.80
2023-12-31T17:45:09.046Z,7.80
2023-12-31T17:47:37.331Z,7.80
2023-12-31T17:50:07.439Z,7.80
2023-12-31T17:52:35.821Z,7.80
2023-12-31T17:55:04.317Z,7.80
2023-12-31T17:57:32.715Z,7.80
2023-12-31T18:00:01.109Z,7.80
2023-12-31T18:02:30.787Z,7.80
2023-12-31T18:04:59.494Z,7.90
2023-12-31T18:07:27.807Z,7.90
2023-12-31T18:09:56.207Z,7.90
2023-12-31T18:12:25.924Z,7.90
2023-12-31T18:14:54.283Z,7.90
2023-12-31T18:17:24.841Z,7.90
2023-12-31T18:19:56.608Z,7.90
2023-12-31T18:22:24.942Z,7.90
2023-12-31T18:24:53.242Z,7.90
2023-12-31T18:27:21.628Z,7.90
2023-12-31T18:29:59.780Z,7.90
2023-12-31T18:32:37.812Z,7.90
2023-12-31T18:35:09.538Z,7.90
2023-12-31T18:37:37.902Z,7.90
2023-12-31T18:40:08.163Z,7.90
2023-12-31T18:42:36.584Z,7.90
2023-12-31T18:45:05.606Z,7.90
2023-12-31T18:47:34.034Z,7.90
2023-12-31T18:50:02.482Z,7.90
2023-12-31T18:52:32.237Z,7.90
2023-12-31T18:55:00.700Z,7.90
2023-12-31T18:57:29.072Z,7.90
2023-12-31T18:59:57.610Z,7.90
2023-12-31T19:02:26.100Z,7.90
2023-12-31T19:04:55.413Z,7.90
2023-12-31T19:07:23.903Z,7.80
2023-12-31T19:09:53.592Z,7.80
2023-12-31T19:12:22.005Z,7.80
2023-12-31T19:14:50.370Z,7.80
2023-12-31T19:17:20.488Z,7.80
2023-12-31T19:19:48.920Z,7.90
2023-12-31T19:22:17.627Z,7.80
2023-12-31T19:24:45.954Z,7.80
2023-12-31T19:27:15.730Z,7.80
2023-12-31T19:29:44.557Z,7.80
2023-12-31T19:32:12.941Z,7.80
2023-12-31T19:34:43.363Z,7.80
2023-12-31T19:37:13.143Z,7.80
2023-12-31T19:39:41.512Z,7.80
2023-12-31T19:42:09.829Z,7.80
2023-12-31T19:44:40.384Z,7.70
2023-12-31T19:47:08.878Z,7.70
2023-12-31T19:49:43.201Z,7.70
2023-12-31T19:52:15.950Z,7.70
2023-12-31T19:54:45.882Z,7.60
2023-12-31T19:57:14.201Z,7.70
2023-12-31T19:59:44.060Z,7.60
2023-12-31T20:02:12.411Z,7.60
2023-12-31T20:04:40.787Z,7.50
2023-12-31T20:07:09.162Z,7.40
2023-12-31T20:09:37.407Z,7.30
2023-12-31T20:12:07.031Z,7.20
2023-12-31T20:14:35.377Z,7.20
2023-12-31T20:17:06.660Z,7.10
2023-12-31T20:19:35.147Z,7.10
2023-12-31T20:22:05.395Z,7.00
2023-12-31T20:24:33.737Z,7.00
2023-12-31T20:27:02.040Z,7.00
2023-12-31T20:29:30.374Z,7.10
2023-12-31T20:31:59.194Z,7.10
2023-12-31T20:34:28.857Z,7.00
2023-12-31T20:36:57.330Z,7.00
2023-12-31T20:39:26.109Z,7.00
2023-12-31T20:41:54.584Z,6.90
2023-12-31T20:44:22.920Z,7.00
2023-12-31T20:46:51.323Z,7.00
2023-12-31T20:49:19.707Z,7.00
2023-12-31T20:51:49.401Z,7.10
2023-12-31T20:54:17.752Z,7.10
2023-12-31T20:56:46.067Z,7.10
2023-12-31T20:59:14.464Z,7.10
2023-12-31T21:01:43.599Z,7.10
2023-12-31T21:04:11.989Z,7.00
2023-12-31T21:06:40.291Z,7.00
2023-12-31T21:09:10.052Z,6.90
2023-12-31T21:11:38.393Z,6.80
2023-12-31T21:14:08.821Z,6.80
2023-12-31T21:16:37.279Z,6.70
2023-12-31T21:19:05.626Z,6.70
2023-12-31T21:21:34.051Z,6.60
2023-12-31T21:24:02.358Z,6.60
2023-12-31T21:26:32.197Z,6.60
2023-12-31T21:29:00.620Z,6.60
2023-12-31T21:31:29.800Z,6.60
2023-12-31T21:34:00.117Z,6.50
2023-12-31T21:36:30.094Z,6.50
2023-12-31T21:38:58.493Z,6.50
2023-12-31T21:41:26.923Z,6.50
2023-12-31T21:43:56.590Z,6.50
2023-12-31T21:46:34.570Z,6.40
2023-12-31T21:49:03.073Z,6.40
2023-12-31T21:51:31.806Z,6.40
2023-12-31T21:54:00.081Z,6.40
2023-12-31T21:56:47.528Z,6.40
2023-12-31T21:59:18.045Z,6.50
2023-12-31T22:01:46.378Z,6.50
2023-12-31T22:04:14.719Z,6.50
2023-12-31T22:06:44.718Z,6.50
2023-12-31T22:09:13.058Z,6.60
2023-12-31T22:11:43.561Z,6.60
2023-12-31T22:14:12.130Z,6.60
2023-12-31T22:16:42.044Z,6.60
2023-12-31T22:19:10.546Z,6.60
2023-12-31T22:21:43.057Z,6.60
2023-12-31T22:24:11.469Z,6.60
2023-12-31T22:26:39.852Z,6.60
2023-12-31T22:29:08.272Z,6.60
2023-12-31T22:31:36.597Z,6.60
2023-12-31T22:34:06.289Z,6.60
2023-12-31T22:36:34.583Z,6.50
2023-12-31T22:39:02.869Z,6.50
2023-12-31T22:41:31.242Z,6.50
2023-12-31T22:43:59.605Z,6.50
2023-12-31T22:46:30.386Z,6.50
2023-12-31T22:48:58.849Z,6.50
2023-12-31T22:51:28.588Z,6.50
2023-12-31T22:53:56.900Z,6.50
2023-12-31T22:56:25.279Z,6.50
2023-12-31T22:58:53.650Z,6.40
2023-12-31T23:01:22.018Z,6.50
2023-12-31T23:03:50.361Z,6.40
2023-12-31T23:06:18.746Z,6.40
2023-12-31T23:08:48.433Z,6.30
2023-12-31T23:11:16.865Z,6.40
2023-12-31T23:13:46.634Z,6.30
2023-12-31T23:16:15.244Z,6.30
2023-12-31T23:18:43.809Z,6.00
2023-12-31T23:21:12.531Z,6.20
2023-12-31T23:23:40.854Z,6.20
2023-12-31T23:26:10.582Z,6.20
